createdAt,value
2018-07-27T00:00:00.205Z,1026.41425094
2018-07-27T00:00:12.636Z,1026.41425094
2018-07-27T00:00:25.051Z,1026.41425094
2018-07-27T00:00:37.466Z,1026.41425094
2018-07-27T00:00:50.023Z,1026.41425094
2018-07-27T00:01:02.433Z,1026.38038706
2018-07-27T00:01:14.993Z,1026.38038706
2018-07-27T00:01:27.402Z,1026.38038706
2018-07-27T00:01:39.832Z,1026.38038706
2018-07-27T00:01:52.230Z,1026.38038706
2018-07-27T00:02:04.676Z,1026.34652317
2018-07-27T00:02:17.217Z,1026.34652317
2018-07-27T00:02:29.621Z,1026.34652317
2018-07-27T00:02:42.034Z,1026.34652317
2018-07-27T00:02:54.428Z,1026.34652317
2018-07-27T00:03:06.812Z,1026.41425094
2018-07-27T00:03:19.208Z,1026.41425094
2018-07-27T00:03:31.609Z,1026.41425094
2018-07-27T00:03:44.032Z,1026.41425094
2018-07-27T00:03:56.602Z,1026.41425094
2018-07-27T00:04:09.020Z,1026.44811482
2018-07-27T00:04:21.425Z,1026.44811482
2018-07-27T00:04:33.897Z,1026.44811482
2018-07-27T00:04:46.316Z,1026.44811482
2018-07-27T00:04:58.823Z,1026.44811482
2018-07-27T00:05:11.225Z,1026.44811482
2018-07-27T00:05:23.647Z,1026.44811482
2018-07-27T00:05:36.100Z,1026.44811482
2018-07-27T00:05:48.541Z,1026.44811482
2018-07-27T00:06:00.943Z,1026.34652317
2018-07-27T00:06:13.347Z,1026.34652317
2018-07-27T00:06:25.730Z,1026.34652317
2018-07-27T00:06:38.146Z,1026.34652317
2018-07-27T00:06:50.553Z,1026.34652317
2018-07-27T00:07:02.965Z,1026.41425094
2018-07-27T00:07:15.391Z,1026.41425094
2018-07-27T00:07:27.802Z,1026.41425094
2018-07-27T00:07:40.197Z,1026.41425094
2018-07-27T00:07:52.580Z,1026.41425094
2018-07-27T00:08:05.132Z,1026.41425094
2018-07-27T00:08:17.544Z,1026.41425094
2018-07-27T00:08:29.972Z,1026.41425094
2018-07-27T00:08:42.383Z,1026.41425094
2018-07-27T00:08:54.779Z,1026.41425094
2018-07-27T00:09:07.201Z,1026.31265929
2018-07-27T00:09:19.606Z,1026.31265929
2018-07-27T00:09:32.001Z,1026.31265929
2018-07-27T00:09:44.400Z,1026.31265929
2018-07-27T00:09:56.802Z,1026.31265929
2018-07-27T00:10:09.204Z,1026.38038706
2018-07-27T00:10:21.621Z,1026.38038706
2018-07-27T00:10:34.061Z,1026.38038706
2018-07-27T00:10:46.466Z,1026.38038706
2018-07-27T00:10:58.854Z,1026.38038706
2018-07-27T00:11:11.261Z,1026.38038706
2018-07-27T00:11:23.658Z,1026.38038706
2018-07-27T00:11:36.069Z,1026.38038706
2018-07-27T00:11:48.449Z,1026.38038706
2018-07-27T00:12:00.863Z,1026.41425094
2018-07-27T00:12:13.297Z,1026.41425094
2018-07-27T00:12:25.715Z,1026.41425094
2018-07-27T00:12:38.128Z,1026.41425094
2018-07-27T00:12:50.585Z,1026.41425094
2018-07-27T00:13:03.046Z,1026.38038706
2018-07-27T00:13:15.447Z,1026.38038706
2018-07-27T00:13:27.860Z,1026.38038706
2018-07-27T00:13:40.423Z,1026.38038706
2018-07-27T00:13:52.840Z,1026.38038706
2018-07-27T00:14:05.304Z,1026.38038706
2018-07-27T00:14:17.756Z,1026.38038706
2018-07-27T00:14:30.204Z,1026.38038706
2018-07-27T00:14:42.617Z,1026.38038706
2018-07-27T00:14:55.018Z,1026.38038706
2018-07-27T00:15:07.445Z,1026.44811482
2018-07-27T00:15:19.854Z,1026.44811482
2018-07-27T00:15:32.244Z,1026.44811482
2018-07-27T00:15:44.647Z,1026.44811482
2018-07-27T00:15:57.058Z,1026.44811482
2018-07-27T00:16:09.464Z,1026.41425094
2018-07-27T00:16:21.893Z,1026.41425094
2018-07-27T00:16:34.275Z,1026.41425094
2018-07-27T00:16:46.678Z,1026.41425094
2018-07-27T00:16:59.073Z,1026.41425094
2018-07-27T00:17:11.476Z,1026.41425094
2018-07-27T00:17:23.912Z,1026.41425094
2018-07-27T00:17:36.334Z,1026.41425094
2018-07-27T00:17:48.754Z,1026.41425094
2018-07-27T00:18:01.179Z,1026.51584258
2018-07-27T00:18:13.595Z,1026.51584258
2018-07-27T00:18:26.000Z,1026.51584258
2018-07-27T00:18:38.459Z,1026.51584258
2018-07-27T00:18:50.913Z,1026.51584258
2018-07-27T00:19:03.316Z,1026.41425094
2018-07-27T00:19:15.746Z,1026.41425094
2018-07-27T00:19:28.154Z,1026.41425094
2018-07-27T00:19:40.593Z,1026.41425094
2018-07-27T00:19:53.007Z,1026.41425094
2018-07-27T00:20:05.408Z,1026.4819787
2018-07-27T00:20:17.816Z,1026.4819787
2018-07-27T00:20:30.262Z,1026.4819787
2018-07-27T00:20:42.672Z,1026.4819787
2018-07-27T00:20:55.078Z,1026.4819787
2018-07-27T00:21:07.493Z,1026.44811482
2018-07-27T00:21:19.914Z,1026.44811482
2018-07-27T00:21:32.415Z,1026.44811482
2018-07-27T00:21:44.838Z,1026.44811482
2018-07-27T00:21:57.284Z,1026.44811482
2018-07-27T00:22:09.717Z,1026.41425094
2018-07-27T00:22:22.146Z,1026.41425094
2018-07-27T00:22:34.541Z,1026.41425094
2018-07-27T00:22:46.970Z,1026.41425094
2018-07-27T00:22:59.375Z,1026.41425094
2018-07-27T00:23:11.869Z,1026.38038706
2018-07-27T00:23:24.331Z,1026.38038706
2018-07-27T00:23:36.754Z,1026.38038706
2018-07-27T00:23:49.158Z,1026.38038706
2018-07-27T00:24:01.559Z,1026.41425094
2018-07-27T00:24:13.969Z,1026.41425094
2018-07-27T00:24:26.364Z,1026.41425094
2018-07-27T00:24:38.767Z,1026.41425094
2018-07-27T00:24:51.166Z,1026.41425094
2018-07-27T00:25:03.588Z,1026.44811482
2018-07-27T00:25:15.979Z,1026.44811482
2018-07-27T00:25:28.395Z,1026.44811482
2018-07-27T00:25:40.799Z,1026.44811482
2018-07-27T00:25:53.208Z,1026.44811482
2018-07-27T00:26:05.646Z,1026.44811482
2018-07-27T00:26:18.069Z,1026.44811482
2018-07-27T00:26:30.461Z,1026.44811482
2018-07-27T00:26:42.858Z,1026.44811482
2018-07-27T00:26:55.261Z,1026.44811482
2018-07-27T00:27:07.666Z,1026.41425094
2018-07-27T00:27:20.069Z,1026.41425094
2018-07-27T00:27:32.454Z,1026.41425094
2018-07-27T00:27:44.867Z,1026.41425094
2018-07-27T00:27:57.275Z,1026.41425094
2018-07-27T00:28:09.688Z,1026.4819787
2018-07-27T00:28:22.122Z,1026.4819787
2018-07-27T00:28:34.693Z,1026.4819787
2018-07-27T00:28:47.108Z,1026.4819787
2018-07-27T00:28:59.516Z,1026.4819787
2018-07-27T00:29:11.917Z,1026.41425094
2018-07-27T00:29:24.321Z,1026.41425094
2018-07-27T00:29:36.761Z,1026.41425094
2018-07-27T00:29:49.170Z,1026.41425094
2018-07-27T00:30:01.596Z,1026.41425094
2018-07-27T00:30:14.001Z,1026.41425094
2018-07-27T00:30:26.402Z,1026.41425094
2018-07-27T00:30:38.800Z,1026.41425094
2018-07-27T00:30:51.421Z,1026.41425094
2018-07-27T00:31:03.819Z,1026.44811482
2018-07-27T00:31:16.234Z,1026.44811482
2018-07-27T00:31:28.652Z,1026.44811482
2018-07-27T00:31:41.047Z,1026.44811482
2018-07-27T00:31:53.451Z,1026.44811482
2018-07-27T00:32:05.848Z,1026.38038706
2018-07-27T00:32:18.270Z,1026.38038706
2018-07-27T00:32:30.910Z,1026.38038706
2018-07-27T00:32:43.300Z,1026.38038706
2018-07-27T00:32:55.728Z,1026.38038706
2018-07-27T00:33:08.129Z,1026.4819787
2018-07-27T00:33:20.527Z,1026.4819787
2018-07-27T00:33:32.971Z,1026.4819787
2018-07-27T00:33:45.360Z,1026.4819787
2018-07-27T00:33:57.773Z,1026.4819787
2018-07-27T00:34:10.360Z,1026.44811482
2018-07-27T00:34:22.780Z,1026.44811482
2018-07-27T00:34:35.185Z,1026.44811482
2018-07-27T00:34:47.584Z,1026.44811482
2018-07-27T00:34:59.995Z,1026.44811482
2018-07-27T00:35:12.442Z,1026.38038706
2018-07-27T00:35:24.846Z,1026.38038706
2018-07-27T00:35:37.250Z,1026.38038706
2018-07-27T00:35:49.733Z,1026.38038706
2018-07-27T00:36:02.130Z,1026.44811482
2018-07-27T00:36:14.522Z,1026.44811482
2018-07-27T00:36:26.931Z,1026.44811482
2018-07-27T00:36:39.346Z,1026.44811482
2018-07-27T00:36:51.820Z,1026.44811482
2018-07-27T00:37:04.229Z,1026.41425094
2018-07-27T00:37:16.639Z,1026.41425094
2018-07-27T00:37:29.048Z,1026.41425094
2018-07-27T00:37:41.451Z,1026.41425094
2018-07-27T00:37:53.921Z,1026.41425094
2018-07-27T00:38:06.320Z,1026.31265929
2018-07-27T00:38:18.716Z,1026.31265929
2018-07-27T00:38:31.088Z,1026.31265929
2018-07-27T00:38:43.484Z,1026.31265929
2018-07-27T00:38:55.881Z,1026.31265929
2018-07-27T00:39:08.288Z,1026.44811482
2018-07-27T00:39:20.693Z,1026.44811482
2018-07-27T00:39:33.112Z,1026.44811482
2018-07-27T00:39:45.514Z,1026.44811482
2018-07-27T00:39:57.951Z,1026.44811482
2018-07-27T00:40:10.409Z,1026.44811482
2018-07-27T00:40:22.845Z,1026.44811482
2018-07-27T00:40:35.262Z,1026.44811482
2018-07-27T00:40:47.726Z,1026.44811482
2018-07-27T00:41:00.143Z,1026.41425094
2018-07-27T00:41:12.562Z,1026.41425094
2018-07-27T00:41:24.967Z,1026.41425094
2018-07-27T00:41:37.390Z,1026.41425094
2018-07-27T00:41:49.789Z,1026.41425094
2018-07-27T00:42:02.199Z,1026.34652317
2018-07-27T00:42:14.621Z,1026.34652317
2018-07-27T00:42:27.012Z,1026.34652317
2018-07-27T00:42:39.421Z,1026.34652317
2018-07-27T00:42:51.825Z,1026.34652317
2018-07-27T00:43:04.226Z,1026.34652317
2018-07-27T00:43:16.774Z,1026.34652317
2018-07-27T00:43:29.168Z,1026.34652317
2018-07-27T00:43:41.575Z,1026.34652317
2018-07-27T00:43:54.030Z,1026.34652317
2018-07-27T00:44:06.455Z,1026.24493153
2018-07-27T00:44:18.872Z,1026.24493153
2018-07-27T00:44:31.309Z,1026.24493153
2018-07-27T00:44:43.907Z,1026.24493153
2018-07-27T00:44:56.320Z,1026.24493153
2018-07-27T00:45:08.742Z,1026.34652317
2018-07-27T00:45:21.167Z,1026.34652317
2018-07-27T00:45:33.614Z,1026.34652317
2018-07-27T00:45:46.033Z,1026.34652317
2018-07-27T00:45:58.441Z,1026.34652317
2018-07-27T00:46:10.857Z,1026.34652317
2018-07-27T00:46:23.280Z,1026.34652317
2018-07-27T00:46:35.695Z,1026.34652317
2018-07-27T00:46:48.125Z,1026.34652317
2018-07-27T00:47:00.532Z,1026.34652317
2018-07-27T00:47:12.929Z,1026.34652317
2018-07-27T00:47:25.332Z,1026.34652317
2018-07-27T00:47:37.742Z,1026.34652317
2018-07-27T00:47:50.147Z,1026.34652317
2018-07-27T00:48:02.554Z,1026.31265929
2018-07-27T00:48:15.002Z,1026.31265929
2018-07-27T00:48:27.417Z,1026.31265929
2018-07-27T00:48:39.843Z,1026.31265929
2018-07-27T00:48:52.318Z,1026.31265929
2018-07-27T00:49:04.717Z,1026.27879541
2018-07-27T00:49:17.126Z,1026.27879541
2018-07-27T00:49:29.531Z,1026.27879541
2018-07-27T00:49:41.973Z,1026.27879541
2018-07-27T00:49:54.379Z,1026.27879541
2018-07-27T00:50:06.804Z,1026.27879541
2018-07-27T00:50:19.215Z,1026.27879541
2018-07-27T00:50:31.642Z,1026.27879541
2018-07-27T00:50:44.056Z,1026.27879541
2018-07-27T00:50:56.479Z,1026.27879541
2018-07-27T00:51:08.885Z,1026.31265929
2018-07-27T00:51:21.293Z,1026.31265929
2018-07-27T00:51:33.705Z,1026.31265929
2018-07-27T00:51:46.105Z,1026.31265929
2018-07-27T00:51:58.505Z,1026.31265929
2018-07-27T00:52:10.981Z,1026.34652317
2018-07-27T00:52:23.379Z,1026.34652317
2018-07-27T00:52:35.822Z,1026.34652317
2018-07-27T00:52:48.235Z,1026.34652317
2018-07-27T00:53:00.634Z,1026.17720377
2018-07-27T00:53:13.354Z,1026.17720377
2018-07-27T00:53:25.755Z,1026.17720377
2018-07-27T00:53:38.171Z,1026.17720377
2018-07-27T00:53:50.588Z,1026.17720377
2018-07-27T00:54:03.009Z,1026.41425094
2018-07-27T00:54:15.480Z,1026.41425094
2018-07-27T00:54:27.894Z,1026.41425094
2018-07-27T00:54:40.316Z,1026.41425094
2018-07-27T00:54:52.730Z,1026.41425094
2018-07-27T00:55:05.123Z,1026.31265929
2018-07-27T00:55:17.658Z,1026.31265929
2018-07-27T00:55:30.070Z,1026.31265929
2018-07-27T00:55:42.472Z,1026.31265929
2018-07-27T00:55:54.873Z,1026.31265929
2018-07-27T00:56:07.294Z,1026.17720377
2018-07-27T00:56:19.696Z,1026.17720377
2018-07-27T00:56:32.104Z,1026.17720377
2018-07-27T00:56:44.500Z,1026.17720377
2018-07-27T00:56:56.884Z,1026.17720377
2018-07-27T00:57:09.264Z,1026.24493153
2018-07-27T00:57:21.683Z,1026.24493153
2018-07-27T00:57:34.557Z,1026.24493153
2018-07-27T00:57:46.978Z,1026.24493153
2018-07-27T00:57:59.376Z,1026.24493153
2018-07-27T00:58:11.874Z,1026.31265929
2018-07-27T00:58:24.284Z,1026.31265929
2018-07-27T00:58:36.675Z,1026.31265929
2018-07-27T00:58:49.127Z,1026.31265929
2018-07-27T00:59:01.543Z,1026.31265929
2018-07-27T00:59:14.098Z,1026.31265929
2018-07-27T00:59:26.516Z,1026.31265929
2018-07-27T00:59:38.926Z,1026.31265929
2018-07-27T00:59:51.332Z,1026.31265929
2018-07-27T01:00:03.760Z,1026.34652317
2018-07-27T01:00:16.167Z,1026.34652317
2018-07-27T01:00:28.608Z,1026.34652317
2018-07-27T01:00:41.138Z,1026.34652317
2018-07-27T01:00:53.663Z,1026.34652317
2018-07-27T01:01:06.080Z,1026.27879541
2018-07-27T01:01:18.622Z,1026.27879541
2018-07-27T01:01:31.021Z,1026.27879541
2018-07-27T01:01:43.420Z,1026.27879541
2018-07-27T01:01:55.830Z,1026.27879541
2018-07-27T01:02:08.320Z,1026.27879541
2018-07-27T01:02:20.722Z,1026.27879541
2018-07-27T01:02:33.141Z,1026.27879541
2018-07-27T01:02:45.573Z,1026.27879541
2018-07-27T01:02:57.987Z,1026.27879541
2018-07-27T01:03:10.408Z,1026.24493153
2018-07-27T01:03:22.828Z,1026.24493153
2018-07-27T01:03:35.253Z,1026.24493153
2018-07-27T01:03:47.651Z,1026.24493153
2018-07-27T01:04:00.066Z,1026.27879541
2018-07-27T01:04:12.489Z,1026.27879541
2018-07-27T01:04:24.913Z,1026.27879541
2018-07-27T01:04:37.489Z,1026.27879541
2018-07-27T01:04:49.902Z,1026.27879541
2018-07-27T01:05:02.345Z,1026.24493153
2018-07-27T01:05:14.765Z,1026.24493153
2018-07-27T01:05:27.219Z,1026.24493153
2018-07-27T01:05:39.686Z,1026.24493153
2018-07-27T01:05:52.122Z,1026.24493153
2018-07-27T01:06:04.547Z,1026.24493153
2018-07-27T01:06:16.984Z,1026.24493153
2018-07-27T01:06:29.420Z,1026.24493153
2018-07-27T01:06:41.857Z,1026.24493153
2018-07-27T01:06:54.289Z,1026.24493153
2018-07-27T01:07:06.712Z,1026.24493153
2018-07-27T01:07:19.142Z,1026.24493153
2018-07-27T01:07:31.556Z,1026.24493153
2018-07-27T01:07:43.959Z,1026.24493153
2018-07-27T01:07:56.403Z,1026.24493153
2018-07-27T01:08:08.790Z,1026.17720377
2018-07-27T01:08:21.199Z,1026.17720377
2018-07-27T01:08:33.624Z,1026.17720377
2018-07-27T01:08:46.019Z,1026.17720377
2018-07-27T01:08:58.420Z,1026.17720377
2018-07-27T01:09:10.836Z,1026.24493153
2018-07-27T01:09:23.239Z,1026.24493153
2018-07-27T01:09:35.655Z,1026.24493153
2018-07-27T01:09:48.049Z,1026.24493153
2018-07-27T01:10:00.467Z,1026.27879541
2018-07-27T01:10:12.869Z,1026.27879541
2018-07-27T01:10:25.336Z,1026.27879541
2018-07-27T01:10:37.741Z,1026.27879541
2018-07-27T01:10:50.144Z,1026.27879541
2018-07-27T01:11:02.558Z,1026.17720377
2018-07-27T01:11:14.954Z,1026.17720377
2018-07-27T01:11:27.362Z,1026.17720377
2018-07-27T01:11:39.797Z,1026.17720377
2018-07-27T01:11:52.187Z,1026.17720377
2018-07-27T01:12:04.604Z,1026.17720377
2018-07-27T01:12:17.007Z,1026.17720377
2018-07-27T01:12:29.424Z,1026.17720377
2018-07-27T01:12:41.854Z,1026.17720377
2018-07-27T01:12:54.273Z,1026.17720377
2018-07-27T01:13:06.687Z,1026.24493153
2018-07-27T01:13:19.111Z,1026.24493153
2018-07-27T01:13:31.514Z,1026.24493153
2018-07-27T01:13:43.910Z,1026.24493153
2018-07-27T01:13:56.318Z,1026.24493153
2018-07-27T01:14:08.724Z,1026.27879541
2018-07-27T01:14:21.120Z,1026.27879541
2018-07-27T01:14:33.540Z,1026.27879541
2018-07-27T01:14:45.961Z,1026.27879541
2018-07-27T01:14:58.354Z,1026.27879541
2018-07-27T01:15:10.747Z,1026.17720377
2018-07-27T01:15:23.148Z,1026.17720377
2018-07-27T01:15:35.604Z,1026.17720377
2018-07-27T01:15:48.025Z,1026.17720377
2018-07-27T01:16:00.447Z,1026.14333988
2018-07-27T01:16:12.940Z,1026.14333988
2018-07-27T01:16:25.344Z,1026.14333988
2018-07-27T01:16:37.752Z,1026.14333988
2018-07-27T01:16:50.159Z,1026.14333988
2018-07-27T01:17:02.605Z,1026.109476
2018-07-27T01:17:15.026Z,1026.109476
2018-07-27T01:17:27.435Z,1026.109476
2018-07-27T01:17:39.839Z,1026.109476
2018-07-27T01:17:52.233Z,1026.109476
2018-07-27T01:18:04.645Z,1026.109476
2018-07-27T01:18:17.052Z,1026.109476
2018-07-27T01:18:29.499Z,1026.109476
2018-07-27T01:18:41.910Z,1026.109476
2018-07-27T01:18:54.336Z,1026.109476
2018-07-27T01:19:06.731Z,1026.109476
2018-07-27T01:19:19.164Z,1026.109476
2018-07-27T01:19:31.584Z,1026.109476
2018-07-27T01:19:43.997Z,1026.109476
2018-07-27T01:19:56.395Z,1026.109476
2018-07-27T01:20:08.802Z,1026.109476
2018-07-27T01:20:21.190Z,1026.109476
2018-07-27T01:20:33.636Z,1026.109476
2018-07-27T01:20:46.029Z,1026.109476
2018-07-27T01:20:58.438Z,1026.109476
2018-07-27T01:21:10.841Z,1026.21106765
2018-07-27T01:21:23.284Z,1026.21106765
2018-07-27T01:21:35.785Z,1026.21106765
2018-07-27T01:21:48.200Z,1026.21106765
2018-07-27T01:22:00.601Z,1026.109476
2018-07-27T01:22:13.026Z,1026.109476
2018-07-27T01:22:25.447Z,1026.109476
2018-07-27T01:22:37.867Z,1026.109476
2018-07-27T01:22:50.315Z,1026.109476
2018-07-27T01:23:02.715Z,1026.17720377
2018-07-27T01:23:15.239Z,1026.17720377
2018-07-27T01:23:27.647Z,1026.17720377
2018-07-27T01:23:40.060Z,1026.17720377
2018-07-27T01:23:52.467Z,1026.17720377
2018-07-27T01:24:04.863Z,1026.14333988
2018-07-27T01:24:17.259Z,1026.14333988
2018-07-27T01:24:29.662Z,1026.14333988
2018-07-27T01:24:42.137Z,1026.14333988
2018-07-27T01:24:54.578Z,1026.14333988
2018-07-27T01:25:07.000Z,1026.14333988
2018-07-27T01:25:19.416Z,1026.14333988
2018-07-27T01:25:31.849Z,1026.14333988
2018-07-27T01:25:44.283Z,1026.14333988
2018-07-27T01:25:56.698Z,1026.14333988
2018-07-27T01:26:09.112Z,1026.14333988
2018-07-27T01:26:21.498Z,1026.14333988
2018-07-27T01:26:33.895Z,1026.14333988
2018-07-27T01:26:46.294Z,1026.14333988
2018-07-27T01:26:58.709Z,1026.14333988
2018-07-27T01:27:11.137Z,1026.14333988
2018-07-27T01:27:23.547Z,1026.14333988
2018-07-27T01:27:35.953Z,1026.14333988
2018-07-27T01:27:48.424Z,1026.14333988
2018-07-27T01:28:00.832Z,1026.21106765
2018-07-27T01:28:13.278Z,1026.21106765
2018-07-27T01:28:25.688Z,1026.21106765
2018-07-27T01:28:38.232Z,1026.21106765
2018-07-27T01:28:50.656Z,1026.21106765
2018-07-27T01:29:03.064Z,1026.14333988
2018-07-27T01:29:15.486Z,1026.14333988
2018-07-27T01:29:27.897Z,1026.14333988
2018-07-27T01:29:40.349Z,1026.14333988
2018-07-27T01:29:52.749Z,1026.14333988
2018-07-27T01:30:05.153Z,1026.07561212
2018-07-27T01:30:17.578Z,1026.07561212
2018-07-27T01:30:30.025Z,1026.07561212
2018-07-27T01:30:42.464Z,1026.07561212
2018-07-27T01:30:54.892Z,1026.07561212
2018-07-27T01:31:07.293Z,1026.14333988
2018-07-27T01:31:19.812Z,1026.14333988
2018-07-27T01:31:32.221Z,1026.14333988
2018-07-27T01:31:44.658Z,1026.14333988
2018-07-27T01:31:57.056Z,1026.14333988
2018-07-27T01:32:09.473Z,1026.17720377
2018-07-27T01:32:22.035Z,1026.17720377
2018-07-27T01:32:34.458Z,1026.17720377
2018-07-27T01:32:46.877Z,1026.17720377
2018-07-27T01:32:59.277Z,1026.17720377
2018-07-27T01:33:11.700Z,1026.14333988
2018-07-27T01:33:24.106Z,1026.14333988
2018-07-27T01:33:36.507Z,1026.14333988
2018-07-27T01:33:48.903Z,1026.14333988
2018-07-27T01:34:01.300Z,1026.14333988
2018-07-27T01:34:13.739Z,1026.14333988
2018-07-27T01:34:26.202Z,1026.14333988
2018-07-27T01:34:38.630Z,1026.14333988
2018-07-27T01:34:51.030Z,1026.14333988
2018-07-27T01:35:03.442Z,1026.109476
2018-07-27T01:35:15.849Z,1026.109476
2018-07-27T01:35:28.266Z,1026.109476
2018-07-27T01:35:40.662Z,1026.109476
2018-07-27T01:35:53.063Z,1026.109476
2018-07-27T01:36:05.617Z,1026.14333988
2018-07-27T01:36:18.015Z,1026.14333988
2018-07-27T01:36:30.459Z,1026.14333988
2018-07-27T01:36:42.868Z,1026.14333988
2018-07-27T01:36:55.278Z,1026.14333988
2018-07-27T01:37:07.663Z,1026.04174824
2018-07-27T01:37:20.077Z,1026.04174824
2018-07-27T01:37:32.485Z,1026.04174824
2018-07-27T01:37:44.927Z,1026.04174824
2018-07-27T01:37:57.343Z,1026.04174824
2018-07-27T01:38:09.808Z,1026.07561212
2018-07-27T01:38:22.270Z,1026.07561212
2018-07-27T01:38:34.661Z,1026.07561212
2018-07-27T01:38:47.117Z,1026.07561212
2018-07-27T01:38:59.532Z,1026.07561212
2018-07-27T01:39:11.955Z,1026.07561212
2018-07-27T01:39:24.386Z,1026.07561212
2018-07-27T01:39:36.797Z,1026.07561212
2018-07-27T01:39:49.215Z,1026.07561212
2018-07-27T01:40:01.618Z,1026.14333988
2018-07-27T01:40:14.049Z,1026.14333988
2018-07-27T01:40:26.461Z,1026.14333988
2018-07-27T01:40:38.848Z,1026.14333988
2018-07-27T01:40:51.268Z,1026.14333988
2018-07-27T01:41:03.778Z,1026.04174824
2018-07-27T01:41:16.202Z,1026.04174824
2018-07-27T01:41:28.627Z,1026.04174824
2018-07-27T01:41:41.032Z,1026.04174824
2018-07-27T01:41:53.448Z,1026.04174824
2018-07-27T01:42:05.878Z,1026.07561212
2018-07-27T01:42:18.289Z,1026.07561212
2018-07-27T01:42:30.704Z,1026.07561212
2018-07-27T01:42:43.161Z,1026.07561212
2018-07-27T01:42:55.571Z,1026.07561212
2018-07-27T01:43:07.988Z,1026.07561212
2018-07-27T01:43:20.480Z,1026.07561212
2018-07-27T01:43:32.873Z,1026.07561212
2018-07-27T01:43:45.265Z,1026.07561212
2018-07-27T01:43:57.657Z,1026.07561212
2018-07-27T01:44:10.101Z,1026.07561212
2018-07-27T01:44:22.536Z,1026.07561212
2018-07-27T01:44:34.934Z,1026.07561212
2018-07-27T01:44:47.508Z,1026.07561212
2018-07-27T01:44:59.913Z,1026.07561212
2018-07-27T01:45:12.332Z,1026.00788436
2018-07-27T01:45:24.736Z,1026.00788436
2018-07-27T01:45:37.146Z,1026.00788436
2018-07-27T01:45:49.540Z,1026.00788436
2018-07-27T01:46:01.988Z,1026.14333988
2018-07-27T01:46:14.543Z,1026.14333988
2018-07-27T01:46:26.923Z,1026.14333988
2018-07-27T01:46:39.314Z,1026.14333988
2018-07-27T01:46:51.714Z,1026.14333988
2018-07-27T01:47:04.125Z,1026.04174824
2018-07-27T01:47:16.525Z,1026.04174824
2018-07-27T01:47:28.933Z,1026.04174824
2018-07-27T01:47:41.339Z,1026.04174824
2018-07-27T01:47:53.726Z,1026.04174824
2018-07-27T01:48:06.119Z,1026.04174824
2018-07-27T01:48:18.533Z,1026.04174824
2018-07-27T01:48:30.963Z,1026.04174824
2018-07-27T01:48:43.358Z,1026.04174824
2018-07-27T01:48:55.973Z,1026.04174824
2018-07-27T01:49:08.405Z,1026.04174824
2018-07-27T01:49:20.811Z,1026.04174824
2018-07-27T01:49:33.238Z,1026.04174824
2018-07-27T01:49:45.630Z,1026.04174824
2018-07-27T01:49:58.052Z,1026.04174824
2018-07-27T01:50:10.475Z,1026.00788436
2018-07-27T01:50:22.876Z,1026.00788436
2018-07-27T01:50:35.283Z,1026.00788436
2018-07-27T01:50:47.673Z,1026.00788436
2018-07-27T01:51:00.449Z,1026.04174824
2018-07-27T01:51:13.727Z,1026.04174824
2018-07-27T01:51:26.173Z,1026.04174824
2018-07-27T01:51:38.589Z,1026.04174824
2018-07-27T01:51:50.984Z,1026.04174824
2018-07-27T01:52:03.418Z,1026.04174824
2018-07-27T01:52:15.816Z,1026.04174824
2018-07-27T01:52:28.223Z,1026.04174824
2018-07-27T01:52:40.626Z,1026.04174824
2018-07-27T01:52:53.068Z,1026.04174824
2018-07-27T01:53:05.519Z,1026.00788436
2018-07-27T01:53:18.223Z,1026.00788436
2018-07-27T01:53:30.643Z,1026.00788436
2018-07-27T01:53:43.048Z,1026.00788436
2018-07-27T01:53:55.467Z,1026.00788436
2018-07-27T01:54:07.874Z,1026.04174824
2018-07-27T01:54:20.318Z,1026.04174824
2018-07-27T01:54:32.732Z,1026.04174824
2018-07-27T01:54:45.168Z,1026.04174824
2018-07-27T01:54:57.565Z,1026.04174824
2018-07-27T01:55:09.989Z,1025.97402048
2018-07-27T01:55:22.668Z,1025.97402048
2018-07-27T01:55:35.073Z,1025.97402048
2018-07-27T01:55:47.476Z,1025.97402048
2018-07-27T01:55:59.883Z,1025.97402048
2018-07-27T01:56:12.272Z,1026.04174824
2018-07-27T01:56:24.730Z,1026.04174824
2018-07-27T01:56:37.143Z,1026.04174824
2018-07-27T01:56:49.560Z,1026.04174824
2018-07-27T01:57:01.964Z,1026.07561212
2018-07-27T01:57:14.365Z,1026.07561212
2018-07-27T01:57:26.776Z,1026.07561212
2018-07-27T01:57:39.316Z,1026.07561212
2018-07-27T01:57:51.738Z,1026.07561212
2018-07-27T01:58:04.163Z,1026.04174824
2018-07-27T01:58:16.562Z,1026.04174824
2018-07-27T01:58:28.976Z,1026.04174824
2018-07-27T01:58:41.368Z,1026.04174824
2018-07-27T01:58:53.760Z,1026.04174824
2018-07-27T01:59:06.167Z,1026.00788436
2018-07-27T01:59:18.578Z,1026.00788436
2018-07-27T01:59:30.967Z,1026.00788436
2018-07-27T01:59:43.359Z,1026.00788436
2018-07-27T01:59:55.751Z,1026.00788436
2018-07-27T02:00:08.174Z,1025.97402048
2018-07-27T02:00:20.672Z,1025.97402048
2018-07-27T02:00:33.135Z,1025.97402048
2018-07-27T02:00:45.737Z,1025.97402048
2018-07-27T02:00:58.159Z,1025.97402048
2018-07-27T02:01:10.805Z,1026.00788436
2018-07-27T02:01:23.236Z,1026.00788436
2018-07-27T02:01:35.686Z,1026.00788436
2018-07-27T02:01:48.107Z,1026.00788436
2018-07-27T02:02:00.560Z,1025.97402048
2018-07-27T02:02:13.179Z,1025.97402048
2018-07-27T02:02:25.612Z,1025.97402048
2018-07-27T02:02:38.023Z,1025.97402048
2018-07-27T02:02:50.432Z,1025.97402048
2018-07-27T02:03:02.831Z,1025.9401566
2018-07-27T02:03:15.241Z,1025.9401566
2018-07-27T02:03:27.637Z,1025.9401566
2018-07-27T02:03:40.032Z,1025.9401566
2018-07-27T02:03:52.441Z,1025.9401566
2018-07-27T02:04:04.877Z,1026.00788436
2018-07-27T02:04:17.300Z,1026.00788436
2018-07-27T02:04:29.706Z,1026.00788436
2018-07-27T02:04:42.154Z,1026.00788436
2018-07-27T02:04:54.565Z,1026.00788436
2018-07-27T02:05:07.146Z,1025.97402048
2018-07-27T02:05:19.595Z,1025.97402048
2018-07-27T02:05:32.002Z,1025.97402048
2018-07-27T02:05:44.407Z,1025.97402048
2018-07-27T02:05:56.997Z,1025.97402048
2018-07-27T02:06:10.217Z,1026.00788436
2018-07-27T02:06:22.646Z,1026.00788436
2018-07-27T02:06:35.067Z,1026.00788436
2018-07-27T02:06:47.509Z,1026.00788436
2018-07-27T02:06:59.930Z,1026.00788436
2018-07-27T02:07:12.347Z,1026.04174824
2018-07-27T02:07:24.775Z,1026.04174824
2018-07-27T02:07:37.178Z,1026.04174824